Time;durP1;ratioP1;P1;durP2;ratioP2;P2;SDS_P1;SDS_P2;PMS_P1;PMS_P2;Temp;Humidity;BMP_temperature;BMP_pressure;BME280_temperature;BME280_humidity;BME280_pressure;Samples;Min_cycle;Max_cycle;Signal;HPM_P1;HPM_P2
2022/08/13 00:02:18;;;;;;;2.63;2.20;;;28.20;62.00;;;;;;5049162;28;20499;-65
2022/08/13 00:04:59;;;;;;;2.77;2.07;;;28.20;61.50;;;;;;5051211;28;20455;-63
2022/08/13 00:07:50;;;;;;;2.87;2.60;;;27.90;63.40;;;;;;5097890;28;20469;-64
2022/08/13 00:10:24;;;;;;;3.00;2.37;;;28.00;63.90;;;;;;5120570;28;20485;-63
2022/08/13 00:12:57;;;;;;;2.57;2.37;;;28.10;63.20;;;;;;5111865;28;20481;-62
2022/08/13 00:15:30;;;;;;;2.60;2.40;;;28.30;62.70;;;;;;5125630;27;20464;-63
2022/08/13 00:18:05;;;;;;;3.13;2.83;;;28.40;62.70;;;;;;5121119;28;20519;-63
2022/08/13 00:20:40;;;;;;;2.30;2.10;;;28.30;63.30;;;;;;5117044;28;20956;-63
2022/08/13 00:23:22;;;;;;;2.50;2.30;;;28.30;60.40;;;;;;5115794;28;20457;-62
2022/08/13 00:26:12;;;;;;;4.50;2.50;;;28.30;61.70;;;;;;5124765;28;20996;-62
2022/08/13 00:29:00;;;;;;;3.00;2.40;;;28.20;63.40;;;;;;5117595;28;20562;-63
2022/08/13 00:31:31;;;;;;;2.10;1.90;;;28.20;63.40;;;;;;5122308;28;20473;-62
2022/08/13 00:34:04;;;;;;;3.10;2.40;;;28.30;62.20;;;;;;5119899;27;20473;-62
2022/08/13 00:36:37;;;;;;;2.37;2.17;;;28.20;62.50;;;;;;5132736;28;20480;-65
2022/08/13 00:39:12;;;;;;;2.40;2.20;;;28.20;63.00;;;;;;5115574;27;20463;-63
2022/08/13 00:41:46;;;;;;;2.70;2.50;;;28.10;63.50;;;;;;5103048;28;20472;-63
2022/08/13 00:44:31;;;;;;;2.20;1.77;;;28.00;63.80;;;;;;5105824;28;20491;-64
2022/08/13 00:49:53;;;;;;;3.07;2.20;;;28.20;63.40;;;;;;5119520;28;20494;-63
2022/08/13 00:52:32;;;;;;;2.80;2.60;;;27.90;62.90;;;;;;5107676;27;20462;-64
2022/08/13 00:55:06;;;;;;;2.50;2.30;;;27.80;64.30;;;;;;5124452;27;20444;-63
2022/08/13 00:57:38;;;;;;;2.37;2.17;;;27.80;65.20;;;;;;5120715;28;20454;-62
2022/08/13 01:00:13;;;;;;;3.10;2.03;;;27.80;63.40;;;;;;5115505;27;20466;-62
2022/08/13 01:02:46;;;;;;;2.67;2.30;;;27.60;64.60;;;;;;5120251;27;20492;-63
2022/08/13 01:05:27;;;;;;;2.57;2.37;;;27.60;62.80;;;;;;5119394;27;20515;-62
2022/08/13 01:08:11;;;;;;;2.77;2.10;;;27.50;64.30;;;;;;5112026;28;20464;-63
2022/08/13 01:10:49;;;;;;;2.23;2.03;;;27.50;64.80;;;;;;5120732;27;20552;-62
2022/08/13 01:13:27;;;;;;;2.47;2.27;;;27.50;64.70;;;;;;5123360;27;20453;-62
2022/08/13 01:16:02;;;;;;;2.60;2.17;;;27.40;65.00;;;;;;5118998;28;20483;-62
2022/08/13 01:18:36;;;;;;;5.47;4.27;;;27.20;66.30;;;;;;5123738;27;20466;-62
2022/08/13 01:21:15;;;;;;;3.17;2.43;;;27.20;66.20;;;;;;5124432;27;20461;-62
2022/08/13 01:23:49;;;;;;;2.50;2.30;;;27.20;66.50;;;;;;5123965;27;20469;-62
2022/08/13 01:26:33;;;;;;;2.40;2.20;;;27.20;66.90;;;;;;5111577;27;20512;-62
2022/08/13 01:29:10;;;;;;;2.60;2.40;;;26.90;68.10;;;;;;5113140;28;20476;-62
2022/08/13 01:31:44;;;;;;;2.97;2.67;;;26.80;69.60;;;;;;5109294;28;20540;-62
2022/08/13 01:34:18;;;;;;;2.50;2.30;;;26.70;70.10;;;;;;5114880;28;20835;-62
2022/08/13 01:36:55;;;;;;;3.07;2.77;;;26.60;70.40;;;;;;5115132;27;20448;-61
2022/08/13 01:39:29;;;;;;;3.10;2.80;;;26.50;70.40;;;;;;5126384;27;20481;-62
2022/08/13 01:42:09;;;;;;;2.27;2.07;;;26.40;71.40;;;;;;5124964;27;20548;-62
2022/08/13 01:44:40;;;;;;;3.30;2.47;;;26.10;72.00;;;;;;5132798;27;20462;-62
2022/08/13 01:50:30;;;;;;;2.40;2.20;;;25.90;72.70;;;;;;5124907;27;20510;-62
2022/08/13 01:53:07;;;;;;;3.10;2.63;;;25.80;72.70;;;;;;5122276;28;20468;-62
2022/08/13 01:55:43;;;;;;;3.60;3.10;;;25.70;72.20;;;;;;5120599;27;20465;-63
2022/08/13 01:58:34;;;;;;;3.43;3.13;;;25.70;72.40;;;;;;5122045;27;20454;-62
2022/08/13 02:01:26;;;;;;;3.17;2.87;;;25.60;74.20;;;;;;5114426;28;20519;-63
2022/08/13 02:04:13;;;;;;;3.13;2.83;;;25.50;73.40;;;;;;5120557;28;20519;-61
2022/08/13 02:06:52;;;;;;;4.03;2.77;;;25.40;73.50;;;;;;5117034;27;20452;-61
2022/08/13 02:09:25;;;;;;;3.87;3.00;;;25.30;73.50;;;;;;5117639;27;20459;-62
2022/08/13 02:12:18;;;;;;;2.63;2.40;;;25.10;73.90;;;;;;5125308;27;20446;-63
2022/08/13 02:15:05;;;;;;;2.70;2.50;;;25.00;74.40;;;;;;5127188;27;20910;-64
2022/08/13 02:17:41;;;;;;;2.70;2.50;;;25.00;74.40;;;;;;5123298;28;20443;-65
2022/08/13 02:20:34;;;;;;;3.17;2.70;;;24.80;74.40;;;;;;5113448;28;20458;-64
2022/08/13 02:23:07;;;;;;;2.53;2.33;;;24.80;77.50;;;;;;5121672;27;20584;-65
2022/08/13 02:25:38;;;;;;;2.90;2.70;;;24.80;79.70;;;;;;5116256;27;20453;-65
2022/08/13 02:28:14;;;;;;;3.00;2.70;;;24.80;84.80;;;;;;5124879;28;20446;-64
2022/08/13 02:30:57;;;;;;;3.10;2.80;;;24.60;89.10;;;;;;5138419;27;20521;-64
2022/08/13 02:33:28;;;;;;;3.20;2.90;;;24.50;90.40;;;;;;5132382;27;20450;-63
2022/08/13 02:36:12;;;;;;;3.03;2.80;;;24.30;91.00;;;;;;5121930;28;20456;-63
2022/08/13 02:38:44;;;;;;;3.40;2.70;;;24.10;91.70;;;;;;5122268;27;20467;-63
2022/08/13 02:44:06;;;;;;;2.90;2.70;;;23.90;92.80;;;;;;5113483;27;20858;-63
2022/08/13 02:46:44;;;;;;;3.20;2.27;;;23.80;93.20;;;;;;5115280;28;20489;-62
2022/08/13 02:49:17;;;;;;;3.43;2.57;;;23.60;94.20;;;;;;5123874;27;20510;-62
2022/08/13 02:51:48;;;;;;;2.83;2.53;;;23.50;93.90;;;;;;5121908;27;20489;-63
2022/08/13 02:54:40;;;;;;;2.90;2.67;;;23.30;93.90;;;;;;5128966;27;20456;-64
2022/08/13 02:57:24;;;;;;;2.83;2.57;;;23.20;93.90;;;;;;5110503;28;20466;-64
2022/08/13 02:59:58;;;;;;;2.63;2.43;;;23.10;93.60;;;;;;5125959;27;20463;-64
2022/08/13 03:02:39;;;;;;;2.20;2.00;;;22.90;93.50;;;;;;5109175;28;20460;-64
2022/08/13 03:05:11;;;;;;;2.90;2.53;;;23.10;93.20;;;;;;5113608;28;20456;-63
2022/08/13 03:07:46;;;;;;;3.17;2.13;;;23.00;93.10;;;;;;5123096;27;20465;-64
2022/08/13 03:10:24;;;;;;;2.33;2.10;;;22.90;93.10;;;;;;5125113;27;20492;-65
2022/08/13 03:13:16;;;;;;;2.83;2.53;;;22.80;93.30;;;;;;5115070;27;20462;-63
2022/08/13 03:15:56;;;;;;;3.40;2.60;;;22.60;93.80;;;;;;5121949;27;20466;-64
2022/08/13 03:18:32;;;;;;;2.57;2.37;;;22.50;93.90;;;;;;5108230;28;20491;-62
2022/08/13 03:21:24;;;;;;;4.30;2.80;;;22.30;94.40;;;;;;5116026;27;20457;-62
2022/08/13 03:24:15;;;;;;;3.67;2.73;;;22.30;94.90;;;;;;5118107;27;20458;-61
2022/08/13 03:26:52;;;;;;;2.70;2.27;;;22.20;95.30;;;;;;5121855;27;20476;-62
2022/08/13 03:29:24;;;;;;;2.70;2.50;;;22.10;95.40;;;;;;5113039;27;20824;-62
2022/08/13 03:32:17;;;;;;;2.40;2.20;;;22.00;95.60;;;;;;5122639;27;20493;-62
2022/08/13 03:35:01;;;;;;;2.20;2.00;;;21.90;96.40;;;;;;5122086;27;20493;-62
2022/08/13 03:37:43;;;;;;;2.37;2.00;;;21.80;97.40;;;;;;5104353;28;20453;-64
2022/08/13 03:40:16;;;;;;;3.80;2.30;;;21.60;98.00;;;;;;5116623;27;20535;-62
2022/08/13 03:42:49;;;;;;;2.43;2.23;;;21.50;98.30;;;;;;5115888;27;20504;-62
2022/08/13 03:45:26;;;;;;;3.57;2.40;;;21.60;97.90;;;;;;5120376;27;20482;-64
2022/08/13 03:47:58;;;;;;;2.23;2.03;;;21.50;98.30;;;;;;5124620;27;20455;-62
2022/08/13 03:50:30;;;;;;;2.83;2.10;;;21.30;99.40;;;;;;5121037;28;20502;-62
2022/08/13 03:53:03;;;;;;;2.47;2.27;;;21.10;99.70;;;;;;5121209;27;20469;-62
2022/08/13 03:55:37;;;;;;;3.10;2.20;;;21.10;99.70;;;;;;5136260;27;20460;-62
2022/08/13 03:58:15;;;;;;;2.33;2.13;;;21.10;99.70;;;;;;5128589;27;20486;-62
2022/08/13 04:00:48;;;;;;;2.90;2.47;;;21.00;99.70;;;;;;5119059;28;20522;-62
2022/08/13 04:03:22;;;;;;;2.90;2.57;;;20.80;99.90;;;;;;5103062;28;20489;-63
2022/08/13 04:05:55;;;;;;;3.10;2.50;;;20.80;99.90;;;;;;5116854;28;20506;-62
2022/08/13 04:08:28;;;;;;;3.30;2.23;;;20.80;99.90;;;;;;5123070;27;20460;-62
2022/08/13 04:10:59;;;;;;;2.43;2.23;;;20.70;99.90;;;;;;5110448;28;20568;-62
2022/08/13 04:13:36;;;;;;;2.93;2.50;;;20.60;99.90;;;;;;5117370;27;20578;-62
2022/08/13 04:16:27;;;;;;;2.77;2.40;;;20.50;99.90;;;;;;5142155;27;20445;-62
2022/08/13 04:19:03;;;;;;;3.20;2.20;;;20.50;99.90;;;;;;5121888;28;20457;-63
2022/08/13 04:21:46;;;;;;;2.70;2.50;;;20.50;99.90;;;;;;5107618;28;20517;-62
2022/08/13 04:24:18;;;;;;;2.10;2.00;;;20.50;99.90;;;;;;5122917;28;20442;-63
2022/08/13 04:26:58;;;;;;;3.40;2.77;;;20.30;99.90;;;;;;5129684;28;20441;-63
2022/08/13 04:29:30;;;;;;;2.40;2.03;;;20.30;99.90;;;;;;5113174;28;20441;-63
2022/08/13 04:32:10;;;;;;;3.40;2.47;;;20.20;99.90;;;;;;5122718;28;20575;-63
2022/08/13 04:34:57;;;;;;;2.77;2.43;;;20.20;99.90;;;;;;5116714;28;20452;-62
2022/08/13 04:37:29;;;;;;;2.83;2.33;;;20.20;99.90;;;;;;5127321;28;20936;-62
2022/08/13 04:40:04;;;;;;;2.70;2.50;;;20.10;99.90;;;;;;5133369;27;20961;-62
2022/08/13 04:42:56;;;;;;;3.93;1.87;;;20.00;99.90;;;;;;5116995;28;20598;-63
2022/08/13 04:45:28;;;;;;;4.00;2.60;;;20.00;99.90;;;;;;5120418;28;20484;-62
2022/08/13 04:48:03;;;;;;;2.27;2.07;;;20.00;99.90;;;;;;5128516;28;20527;-62
2022/08/13 04:50:36;;;;;;;2.60;1.97;;;20.10;99.90;;;;;;5129431;27;20524;-63
2022/08/13 04:53:11;;;;;;;2.43;2.23;;;20.10;99.90;;;;;;5119994;28;20453;-63
2022/08/13 04:55:42;;;;;;;2.20;2.00;;;20.00;99.90;;;;;;5121666;27;20470;-63
2022/08/13 04:58:35;;;;;;;2.40;2.20;;;20.00;99.90;;;;;;5123580;28;20510;-63
2022/08/13 05:01:09;;;;;;;3.07;1.90;;;20.00;99.90;;;;;;5113180;28;20456;-64
2022/08/13 05:04:01;;;;;;;2.37;2.17;;;19.90;99.90;;;;;;5121882;27;20492;-63
2022/08/13 05:06:53;;;;;;;4.00;2.10;;;19.90;99.90;;;;;;5122895;28;20577;-63
2022/08/13 05:09:25;;;;;;;2.30;2.10;;;19.90;99.90;;;;;;5131733;27;20966;-63
2022/08/13 05:12:01;;;;;;;2.80;2.30;;;20.00;99.90;;;;;;5117635;28;21272;-63
2022/08/13 05:14:35;;;;;;;2.33;2.03;;;20.00;99.90;;;;;;5127949;28;20956;-63
2022/08/13 05:17:07;;;;;;;3.50;2.70;;;19.90;99.90;;;;;;5129454;27;20460;-63
2022/08/13 05:19:45;;;;;;;3.33;2.33;;;19.80;99.90;;;;;;5121471;28;20467;-64
2022/08/13 05:22:22;;;;;;;2.67;2.37;;;19.80;99.90;;;;;;5120745;28;20430;-63
2022/08/13 05:24:59;;;;;;;3.60;2.27;;;19.70;99.90;;;;;;5125022;28;20782;-63
2022/08/13 05:27:49;;;;;;;5.50;1.97;;;19.70;99.90;;;;;;5121326;28;20469;-63
2022/08/13 05:30:20;;;;;;;2.77;2.37;;;19.60;99.90;;;;;;5120003;28;20461;-63
2022/08/13 05:33:00;;;;;;;2.30;2.00;;;19.50;99.90;;;;;;5130364;27;20482;-63
2022/08/13 05:35:43;;;;;;;3.63;2.27;;;19.50;99.90;;;;;;5111652;28;20460;-63
2022/08/13 05:38:36;;;;;;;2.50;1.90;;;19.40;99.90;;;;;;5114134;28;20468;-63
2022/08/13 05:41:15;;;;;;;2.83;2.53;;;19.40;99.90;;;;;;5114475;27;20582;-63
2022/08/13 05:43:50;;;;;;;3.43;2.20;;;19.40;99.90;;;;;;5134012;27;20438;-64
2022/08/13 05:46:24;;;;;;;1.90;1.80;;;19.30;99.90;;;;;;5109722;27;20949;-63
2022/08/13 05:48:59;;;;;;;2.17;1.97;;;19.40;99.90;;;;;;5126363;27;20479;-63
2022/08/13 05:51:31;;;;;;;2.43;2.10;;;19.50;99.90;;;;;;5128502;27;20481;-63
2022/08/13 05:54:23;;;;;;;3.43;1.63;;;19.50;99.90;;;;;;5128736;27;20510;-63
2022/08/13 05:57:14;;;;;;;2.17;1.90;;;19.40;99.90;;;;;;5111521;27;20465;-63
2022/08/13 06:05:22;;;;;;;2.00;1.80;;;19.60;99.90;;;;;;5116501;27;20463;-63
2022/08/13 06:08:15;;;;;;;2.33;1.80;;;19.50;99.90;;;;;;5127664;27;20458;-63
2022/08/13 06:11:11;;;;;;;2.43;2.23;;;19.40;99.90;;;;;;5134074;27;20423;-63
2022/08/13 06:13:49;;;;;;;2.20;1.93;;;19.40;99.90;;;;;;5127036;27;20443;-63
2022/08/13 06:16:37;;;;;;;2.87;1.97;;;19.40;99.90;;;;;;5118146;28;20432;-62
2022/08/13 06:19:25;;;;;;;1.77;1.67;;;19.50;99.90;;;;;;5123080;27;20453;-63
2022/08/13 06:22:02;;;;;;;2.00;1.80;;;19.30;99.90;;;;;;5124230;27;20500;-63
2022/08/13 06:24:37;;;;;;;2.87;2.43;;;19.30;99.90;;;;;;5115039;27;20495;-63
2022/08/13 06:27:25;;;;;;;2.40;2.10;;;19.30;99.90;;;;;;5118574;28;20486;-63
2022/08/13 06:30:18;;;;;;;2.10;1.90;;;19.10;99.90;;;;;;5121792;27;20507;-63
2022/08/13 06:33:01;;;;;;;2.20;1.60;;;18.90;99.90;;;;;;5121113;27;20897;-63
2022/08/13 06:35:53;;;;;;;2.03;1.93;;;18.80;99.90;;;;;;5116165;28;20506;-63
2022/08/13 06:38:30;;;;;;;1.83;1.50;;;18.60;99.90;;;;;;5129997;27;20486;-63
2022/08/13 06:41:04;;;;;;;2.20;2.00;;;18.60;99.90;;;;;;5121940;27;20459;-63
2022/08/13 06:43:37;;;;;;;2.40;1.87;;;18.50;99.90;;;;;;5123922;27;20432;-63
2022/08/13 06:46:30;;;;;;;3.70;1.70;;;18.40;99.90;;;;;;5115775;28;20450;-63
2022/08/13 06:49:03;;;;;;;1.70;1.60;;;18.40;99.90;;;;;;5131356;27;20548;-63
2022/08/13 06:51:35;;;;;;;2.07;1.67;;;18.30;99.90;;;;;;5107455;28;20481;-63
2022/08/13 06:54:09;;;;;;;3.13;1.87;;;18.20;99.90;;;;;;5123963;27;20458;-63
2022/08/13 06:56:54;;;;;;;3.03;2.07;;;18.20;99.90;;;;;;5122287;28;20466;-63
2022/08/13 06:59:44;;;;;;;2.13;1.93;;;18.10;99.90;;;;;;5115643;27;20534;-63
2022/08/13 07:02:37;;;;;;;1.97;1.77;;;18.10;99.90;;;;;;5132034;27;20537;-63
2022/08/13 07:05:08;;;;;;;2.23;2.00;;;17.90;99.90;;;;;;5137977;27;20517;-63
2022/08/13 07:07:45;;;;;;;1.70;1.60;;;17.90;99.90;;;;;;5117542;27;20454;-62
2022/08/13 07:10:16;;;;;;;1.80;1.70;;;17.90;99.90;;;;;;5126560;27;20431;-63
2022/08/13 07:12:46;;;;;;;2.27;1.80;;;17.80;99.90;;;;;;5115303;28;20969;-63
2022/08/13 07:15:21;;;;;;;2.10;1.90;;;17.70;99.90;;;;;;5140793;27;20424;-63
2022/08/13 07:18:09;;;;;;;1.67;1.53;;;17.70;99.90;;;;;;5123863;27;20785;-62
2022/08/13 07:20:42;;;;;;;2.00;1.80;;;17.60;99.90;;;;;;5123966;27;20465;-62
2022/08/13 07:23:13;;;;;;;2.00;1.80;;;17.60;99.90;;;;;;5123926;28;20461;-63
2022/08/13 07:26:05;;;;;;;1.97;1.87;;;17.50;99.90;;;;;;5118382;27;20493;-63
2022/08/13 07:28:40;;;;;;;1.57;1.47;;;17.50;99.90;;;;;;5126626;27;20435;-63
2022/08/13 07:31:28;;;;;;;2.17;1.40;;;17.40;99.90;;;;;;5109989;27;20445;-63
2022/08/13 07:34:19;;;;;;;2.50;1.63;;;17.40;99.90;;;;;;5105195;28;20494;-63
2022/08/13 07:36:56;;;;;;;2.83;1.60;;;17.30;99.90;;;;;;5112765;27;20508;-63
2022/08/13 07:39:30;;;;;;;2.73;2.10;;;17.20;99.90;;;;;;5121772;27;20435;-63
2022/08/13 07:42:21;;;;;;;2.57;1.80;;;17.20;99.90;;;;;;5108761;28;20538;-63
2022/08/13 07:45:11;;;;;;;3.37;1.80;;;17.20;99.90;;;;;;5129084;27;20425;-63
2022/08/13 07:48:05;;;;;;;2.00;1.80;;;17.10;99.90;;;;;;5132143;27;20537;-63
2022/08/13 07:50:56;;;;;;;2.10;1.90;;;17.10;99.90;;;;;;5117166;27;20437;-63
2022/08/13 07:53:35;;;;;;;2.40;1.80;;;17.10;99.90;;;;;;5120536;27;20464;-62
2022/08/13 07:56:28;;;;;;;2.17;1.93;;;17.10;99.90;;;;;;5115980;27;20435;-63
2022/08/13 07:59:04;;;;;;;1.70;1.60;;;17.10;99.90;;;;;;5126415;27;20764;-63
2022/08/13 08:01:45;;;;;;;1.63;1.50;;;17.20;99.90;;;;;;5119365;27;20516;-63
2022/08/13 08:04:40;;;;;;;3.67;1.43;;;17.20;99.90;;;;;;5112087;28;20477;-63
2022/08/13 08:07:19;;;;;;;1.60;1.50;;;17.10;99.90;;;;;;5116832;27;20437;-63
2022/08/13 08:09:52;;;;;;;2.60;1.80;;;17.10;99.90;;;;;;5115358;27;20470;-63
2022/08/13 08:12:35;;;;;;;3.27;1.93;;;17.10;99.90;;;;;;5130991;27;20469;-63
2022/08/13 08:15:24;;;;;;;4.07;2.03;;;17.00;99.90;;;;;;5110779;28;20432;-62
2022/08/13 08:18:16;;;;;;;1.70;1.40;;;17.10;99.90;;;;;;5117676;28;20444;-63
2022/08/13 08:21:10;;;;;;;2.00;1.77;;;17.00;99.90;;;;;;5115907;27;20997;-63
2022/08/13 08:24:03;;;;;;;2.43;1.80;;;17.00;99.90;;;;;;5109391;28;20496;-62
2022/08/13 08:26:52;;;;;;;2.30;1.83;;;17.00;99.90;;;;;;5116744;28;20432;-63
2022/08/13 08:29:23;;;;;;;3.23;2.20;;;17.10;99.90;;;;;;5124779;28;20442;-62
2022/08/13 08:32:08;;;;;;;1.20;1.10;;;17.00;99.90;;;;;;5140464;28;20426;-63
2022/08/13 08:34:41;;;;;;;2.07;1.63;;;17.10;99.90;;;;;;5129483;27;20459;-63
2022/08/13 08:43:16;;;;;;;5.50;2.37;;;17.30;99.90;;;;;;5121010;28;20443;-63
2022/08/13 08:45:54;;;;;;;1.93;1.50;;;17.40;99.90;;;;;;5127662;27;20475;-62
2022/08/13 08:48:42;;;;;;;1.20;1.00;;;17.40;99.90;;;;;;5122351;28;20948;-63
2022/08/13 08:51:24;;;;;;;1.73;1.57;;;17.50;99.90;;;;;;5126996;28;20501;-63
2022/08/13 08:53:58;;;;;;;1.10;1.00;;;17.50;99.90;;;;;;5116062;28;20479;-63
2022/08/13 08:56:49;;;;;;;1.90;1.70;;;17.50;99.90;;;;;;5118505;28;20481;-63
2022/08/13 08:59:28;;;;;;;1.80;1.43;;;17.40;99.90;;;;;;5124373;27;20460;-63
2022/08/13 09:02:02;;;;;;;1.60;1.50;;;17.30;99.90;;;;;;5122764;28;20515;-63
2022/08/13 09:04:33;;;;;;;4.10;1.67;;;17.40;99.90;;;;;;5118593;28;20478;-62
2022/08/13 09:07:24;;;;;;;1.40;1.30;;;17.30;99.90;;;;;;5117626;28;20500;-63
2022/08/13 09:10:00;;;;;;;2.27;1.60;;;17.30;99.90;;;;;;5110972;28;20499;-63
2022/08/13 09:12:34;;;;;;;1.93;1.40;;;17.40;99.90;;;;;;5116916;27;20441;-63
2022/08/13 09:15:06;;;;;;;3.77;1.60;;;17.40;99.90;;;;;;5120033;28;20471;-63
2022/08/13 09:17:38;;;;;;;1.20;1.10;;;17.40;99.90;;;;;;5110238;28;20928;-63
2022/08/13 09:20:13;;;;;;;1.30;1.20;;;17.40;99.90;;;;;;5119469;27;20986;-63
2022/08/13 09:22:48;;;;;;;1.17;1.00;;;17.50;99.90;;;;;;5117359;27;20543;-65
2022/08/13 09:25:27;;;;;;;1.23;1.07;;;17.50;99.90;;;;;;5108907;28;20428;-62
2022/08/13 09:27:59;;;;;;;1.70;1.10;;;17.60;99.90;;;;;;5120484;27;20431;-63
2022/08/13 09:30:45;;;;;;;1.50;1.40;;;17.50;99.90;;;;;;5124673;27;20490;-63
2022/08/13 09:33:19;;;;;;;1.60;1.50;;;17.60;99.90;;;;;;5126748;27;20494;-63
2022/08/13 09:36:11;;;;;;;2.00;1.70;;;17.70;99.90;;;;;;5113817;27;20494;-62
2022/08/13 09:38:51;;;;;;;2.00;1.60;;;17.70;99.90;;;;;;5121357;27;20936;-63
2022/08/13 09:41:29;;;;;;;1.63;1.10;;;17.70;99.90;;;;;;5134234;27;20427;-63
2022/08/13 09:44:06;;;;;;;1.70;1.37;;;17.70;99.90;;;;;;5126139;27;20421;-63
2022/08/13 09:46:47;;;;;;;1.97;1.47;;;17.80;99.90;;;;;;5135018;27;20461;-62
2022/08/13 09:49:22;;;;;;;1.30;1.20;;;17.80;99.90;;;;;;5124271;27;20488;-63
2022/08/13 09:52:12;;;;;;;2.00;1.53;;;17.90;99.90;;;;;;5123675;27;20477;-63
2022/08/13 09:54:49;;;;;;;1.67;1.23;;;17.90;99.90;;;;;;5116192;27;20467;-62
2022/08/13 09:57:21;;;;;;;3.80;1.50;;;17.90;99.90;;;;;;5114447;27;20450;-62
2022/08/13 09:59:53;;;;;;;1.20;1.10;;;17.80;99.90;;;;;;5117821;27;20439;-63
2022/08/13 10:02:27;;;;;;;1.50;1.40;;;17.80;99.90;;;;;;5128316;27;20428;-63
2022/08/13 10:04:58;;;;;;;1.30;1.20;;;17.70;99.90;;;;;;5126594;27;20458;-63
2022/08/13 10:07:30;;;;;;;2.20;1.73;;;17.70;99.90;;;;;;5121803;28;20457;-63
2022/08/13 10:10:16;;;;;;;1.10;1.00;;;17.70;99.90;;;;;;5134834;27;20461;-62
2022/08/13 10:13:03;;;;;;;1.30;1.20;;;17.70;99.90;;;;;;5128417;27;20435;-62
2022/08/13 10:15:35;;;;;;;1.70;1.20;;;17.70;99.90;;;;;;5120533;27;21022;-62
2022/08/13 10:18:10;;;;;;;1.57;1.20;;;17.80;99.90;;;;;;5120034;28;20435;-63
2022/08/13 10:20:45;;;;;;;1.57;1.13;;;17.80;99.90;;;;;;5130857;27;20982;-62
2022/08/13 10:23:18;;;;;;;1.37;1.23;;;17.80;99.90;;;;;;5133426;27;20457;-62
2022/08/13 10:26:04;;;;;;;1.40;1.20;;;17.70;99.90;;;;;;5115825;28;20462;-62
2022/08/13 10:28:37;;;;;;;1.30;1.20;;;17.80;99.90;;;;;;5125000;27;20432;-62
2022/08/13 10:31:17;;;;;;;1.10;1.00;;;17.80;99.90;;;;;;5109022;27;20436;-63
2022/08/13 10:34:08;;;;;;;1.77;1.20;;;17.70;99.90;;;;;;5118966;27;20513;-62
2022/08/13 10:36:42;;;;;;;1.30;1.07;;;17.70;99.90;;;;;;5123733;27;20746;-63
2022/08/13 10:39:13;;;;;;;1.00;0.90;;;17.70;99.90;;;;;;5109271;27;20457;-63
2022/08/13 10:41:44;;;;;;;1.40;1.30;;;17.80;99.90;;;;;;5114530;28;20428;-61
2022/08/13 10:44:34;;;;;;;1.40;1.30;;;17.90;99.90;;;;;;5118101;28;20457;-61
2022/08/13 10:47:06;;;;;;;1.87;1.37;;;17.80;99.90;;;;;;5123319;27;20460;-61
2022/08/13 10:49:38;;;;;;;1.70;1.60;;;17.90;99.90;;;;;;5125589;27;20525;-61
2022/08/13 10:52:13;;;;;;;1.50;1.40;;;17.80;99.90;;;;;;5123608;27;20462;-61
2022/08/13 10:54:44;;;;;;;1.40;1.30;;;17.80;99.90;;;;;;5122090;27;20445;-62
2022/08/13 10:57:15;;;;;;;1.70;1.33;;;17.70;99.90;;;;;;5128710;27;20464;-61
2022/08/13 10:59:48;;;;;;;1.60;1.40;;;17.70;99.90;;;;;;5131692;27;20447;-61
2022/08/13 11:02:19;;;;;;;3.30;1.80;;;17.80;99.90;;;;;;5124088;27;20531;-61
2022/08/13 11:04:49;;;;;;;1.80;1.70;;;17.70;99.90;;;;;;5115793;27;20494;-61
2022/08/13 11:07:25;;;;;;;1.60;1.10;;;17.70;99.90;;;;;;5126351;27;20558;-61
2022/08/13 11:09:56;;;;;;;1.43;1.20;;;17.80;99.90;;;;;;5127849;27;20538;-61
2022/08/13 11:12:27;;;;;;;1.90;1.40;;;17.70;99.90;;;;;;5122906;27;20533;-63
2022/08/13 11:15:00;;;;;;;1.40;1.30;;;17.70;99.90;;;;;;5134071;27;20508;-61
2022/08/13 11:17:35;;;;;;;1.43;1.33;;;17.70;99.90;;;;;;5132536;27;20494;-61
2022/08/13 11:20:27;;;;;;;1.50;1.40;;;17.70;99.90;;;;;;5124200;27;20428;-61
2022/08/13 11:22:59;;;;;;;1.73;1.47;;;17.70;99.90;;;;;;5129714;27;20427;-62
2022/08/13 11:25:30;;;;;;;1.50;1.00;;;17.70;99.90;;;;;;5124657;27;20465;-62
2022/08/13 11:28:21;;;;;;;2.03;1.47;;;17.70;99.90;;;;;;5124581;27;20484;-62
2022/08/13 11:30:57;;;;;;;2.40;1.90;;;17.70;99.90;;;;;;5111466;27;20436;-62
2022/08/13 11:33:28;;;;;;;1.13;1.03;;;17.70;99.90;;;;;;5143834;27;20516;-62
2022/08/13 11:36:18;;;;;;;1.57;1.47;;;17.70;99.90;;;;;;5142285;27;20813;-62
2022/08/13 11:38:49;;;;;;;1.20;1.10;;;17.70;99.90;;;;;;5130588;27;20841;-63
2022/08/13 11:41:21;;;;;;;1.53;1.43;;;17.70;99.90;;;;;;5117695;28;20461;-62
2022/08/13 11:43:53;;;;;;;2.10;1.50;;;17.70;99.90;;;;;;5125292;27;20473;-62
2022/08/13 11:46:28;;;;;;;1.83;1.70;;;17.70;99.90;;;;;;5120158;27;20432;-63
2022/08/13 11:48:59;;;;;;;2.43;1.77;;;17.60;99.90;;;;;;5127304;27;20480;-62
2022/08/13 11:51:39;;;;;;;2.00;1.70;;;17.60;99.90;;;;;;5126051;27;20516;-62
2022/08/13 11:54:22;;;;;;;2.07;1.67;;;17.60;99.90;;;;;;5133474;27;20444;-62
2022/08/13 11:57:02;;;;;;;1.93;1.60;;;17.60;99.90;;;;;;5127128;27;20423;-62
2022/08/13 11:59:38;;;;;;;1.77;1.67;;;17.50;99.90;;;;;;5122714;27;20547;-62
2022/08/13 12:02:15;;;;;;;1.90;1.37;;;17.60;99.90;;;;;;5120458;27;20490;-62
2022/08/13 12:05:01;;;;;;;1.80;1.30;;;17.60;99.90;;;;;;5125525;27;20436;-62
2022/08/13 12:07:40;;;;;;;1.60;1.50;;;17.60;99.90;;;;;;5132032;27;20436;-63
2022/08/13 12:10:16;;;;;;;4.00;1.77;;;17.50;99.90;;;;;;5122846;27;21248;-62
2022/08/13 12:13:07;;;;;;;1.90;1.80;;;17.60;99.90;;;;;;5121467;28;20478;-62
2022/08/13 12:15:38;;;;;;;2.47;2.27;;;17.60;99.90;;;;;;5125344;27;20497;-62
2022/08/13 12:18:30;;;;;;;1.37;1.20;;;17.60;99.90;;;;;;5121034;27;20465;-62
2022/08/13 12:21:01;;;;;;;1.60;1.50;;;17.70;99.90;;;;;;5113013;28;20460;-62
2022/08/13 12:23:34;;;;;;;1.70;1.47;;;17.60;99.90;;;;;;5126591;27;20491;-62
2022/08/13 12:26:08;;;;;;;3.57;1.83;;;17.60;99.90;;;;;;5127454;27;20815;-62
2022/08/13 12:28:40;;;;;;;2.10;1.67;;;17.70;99.90;;;;;;5116821;28;20425;-62
2022/08/13 12:31:17;;;;;;;1.87;1.63;;;17.70;99.90;;;;;;5111627;28;20949;-62
2022/08/13 12:33:49;;;;;;;1.47;1.37;;;17.70;99.90;;;;;;5119010;28;20538;-62
2022/08/13 12:36:20;;;;;;;2.10;2.00;;;17.60;99.90;;;;;;5106976;28;20873;-62
2022/08/13 12:38:51;;;;;;;1.47;1.37;;;17.60;99.90;;;;;;5129445;28;20460;-61
2022/08/13 12:41:32;;;;;;;1.87;1.70;;;17.60;99.90;;;;;;5119245;28;20454;-62
2022/08/13 12:44:15;;;;;;;1.57;1.43;;;17.60;99.90;;;;;;5114183;28;20412;-62
2022/08/13 12:47:06;;;;;;;1.30;1.20;;;17.60;99.90;;;;;;5125627;28;20762;-63
2022/08/13 12:49:41;;;;;;;3.30;1.70;;;17.70;99.90;;;;;;5129685;27;20512;-63
2022/08/13 12:52:31;;;;;;;1.60;1.50;;;17.70;99.90;;;;;;5122349;28;20489;-62
2022/08/13 12:55:02;;;;;;;1.50;1.40;;;17.70;99.90;;;;;;5144430;27;20455;-62
2022/08/13 12:57:46;;;;;;;1.67;1.50;;;17.60;99.90;;;;;;5128230;27;20475;-62
2022/08/13 13:00:35;;;;;;;1.77;1.30;;;17.70;99.90;;;;;;5125698;27;20894;-62
2022/08/13 13:03:07;;;;;;;1.70;1.60;;;17.70;99.90;;;;;;5126185;27;20826;-62
2022/08/13 13:05:46;;;;;;;2.43;1.87;;;17.70;99.90;;;;;;5119976;28;20446;-62
2022/08/13 13:08:22;;;;;;;1.80;1.40;;;17.70;99.90;;;;;;5124998;27;21355;-62
2022/08/13 13:11:03;;;;;;;3.07;1.63;;;17.70;99.90;;;;;;5130933;27;20752;-62
2022/08/13 13:13:43;;;;;;;1.60;1.43;;;17.80;99.90;;;;;;5132659;27;20517;-62
2022/08/13 13:16:31;;;;;;;2.20;1.27;;;17.80;99.90;;;;;;5118184;28;20518;-62
2022/08/13 13:19:06;;;;;;;1.50;1.40;;;17.70;99.90;;;;;;5120024;27;20447;-62
2022/08/13 13:21:47;;;;;;;1.60;1.37;;;17.70;99.90;;;;;;5138585;27;20447;-62
2022/08/13 13:24:19;;;;;;;1.60;1.50;;;17.70;99.90;;;;;;5131479;27;20453;-63
2022/08/13 13:26:54;;;;;;;1.60;1.20;;;17.70;99.90;;;;;;5123044;27;20923;-62
2022/08/13 13:29:38;;;;;;;1.40;1.10;;;17.70;99.90;;;;;;5126041;27;20529;-62
2022/08/13 13:32:12;;;;;;;2.10;1.33;;;17.70;99.90;;;;;;5113442;28;20465;-62
2022/08/13 13:35:03;;;;;;;1.53;1.13;;;17.70;99.90;;;;;;5113294;27;20454;-62
2022/08/13 13:37:55;;;;;;;1.40;1.10;;;17.70;99.90;;;;;;5128996;27;20431;-62
2022/08/13 13:40:38;;;;;;;1.57;1.47;;;17.70;99.90;;;;;;5120465;27;20830;-62
2022/08/13 13:43:14;;;;;;;1.50;1.40;;;17.70;99.90;;;;;;5112965;27;20519;-62
2022/08/13 13:45:55;;;;;;;1.30;1.13;;;17.70;99.90;;;;;;5112918;28;20510;-62
2022/08/13 13:48:34;;;;;;;2.40;1.10;;;17.70;99.90;;;;;;5116491;28;20519;-62
2022/08/13 13:51:07;;;;;;;1.93;1.27;;;17.80;99.90;;;;;;5104406;28;21318;-62
2022/08/13 13:53:43;;;;;;;1.77;1.37;;;17.80;99.90;;;;;;5109467;28;20457;-62
2022/08/13 13:56:33;;;;;;;1.60;1.20;;;17.80;99.90;;;;;;5123116;28;20927;-62
2022/08/13 13:59:04;;;;;;;2.00;1.73;;;17.80;99.90;;;;;;5113346;28;20467;-62
2022/08/13 14:01:35;;;;;;;1.30;1.20;;;17.80;99.90;;;;;;5111467;28;20433;-61
2022/08/13 14:04:21;;;;;;;2.50;1.70;;;17.80;99.90;;;;;;5113201;28;20501;-63
2022/08/13 14:07:03;;;;;;;1.27;1.17;;;17.80;99.90;;;;;;5120845;28;20440;-63
2022/08/13 14:09:55;;;;;;;2.23;2.03;;;17.80;99.90;;;;;;5104621;28;20418;-63